createdAt,value
2023-04-03T00:00:46.476Z,55.59
2023-04-03T00:01:46.501Z,60.26
2023-04-03T00:02:46.629Z,65.74
2023-04-03T00:03:46.552Z,63.81
2023-04-03T00:04:46.954Z,65.74
2023-04-03T00:05:46.491Z,55.43
2023-04-03T00:06:46.410Z,64.61
2023-04-03T00:07:46.465Z,62.36
2023-04-03T00:08:46.434Z,60.42
2023-04-03T00:09:47.264Z,68.16
2023-04-03T00:10:46.439Z,64.45
2023-04-03T00:11:46.415Z,58.17
2023-04-03T00:12:46.424Z,57.20
2023-04-03T00:13:46.407Z,58.17
2023-04-03T00:14:46.371Z,51.40
2023-04-03T00:15:47.331Z,72.83
2023-04-03T00:16:46.439Z,61.71
2023-04-03T00:17:46.365Z,58.17
2023-04-03T00:18:46.354Z,56.56
2023-04-03T00:19:46.343Z,54.14
2023-04-03T00:20:46.538Z,70.09
2023-04-03T00:21:47.311Z,58.49
2023-04-03T00:22:46.338Z,58.65
2023-04-03T00:23:46.329Z,52.69
2023-04-03T00:24:46.294Z,49.47
2023-04-03T00:25:46.309Z,67.51
2023-04-03T00:26:46.303Z,48.98
2023-04-03T00:27:46.390Z,55.43
2023-04-03T00:28:46.335Z,57.52
2023-04-03T00:29:46.267Z,68.64
2023-04-03T00:30:46.315Z,66.06
2023-04-03T00:31:46.340Z,62.04
2023-04-03T00:32:46.289Z,71.38
2023-04-03T00:33:46.429Z,54.62
2023-04-03T00:34:46.218Z,62.20
2023-04-03T00:35:46.266Z,61.23
2023-04-03T00:36:46.276Z,67.51
2023-04-03T00:37:47.161Z,55.91
2023-04-03T00:38:46.198Z,53.01
2023-04-03T00:39:46.211Z,53.82
2023-04-03T00:40:46.149Z,71.06
2023-04-03T00:41:46.171Z,62.36
2023-04-03T00:42:46.179Z,72.83
2023-04-03T00:43:46.851Z,53.50
2023-04-03T00:44:46.201Z,55.75
2023-04-03T00:45:46.164Z,56.88
2023-04-03T00:46:46.140Z,52.53
2023-04-03T00:47:46.137Z,53.01
2023-04-03T00:48:46.125Z,70.74
2023-04-03T00:49:46.125Z,53.50
2023-04-03T00:50:46.207Z,74.44
2023-04-03T00:51:47.070Z,55.75
2023-04-03T00:52:46.068Z,55.43
2023-04-03T00:53:46.087Z,53.17
2023-04-03T00:54:46.047Z,54.30
2023-04-03T00:55:46.081Z,68.64
2023-04-03T00:56:46.065Z,71.70
2023-04-03T00:57:46.048Z,68.16
2023-04-03T00:58:46.056Z,48.18
2023-04-03T00:59:46.001Z,70.90
2023-04-03T01:00:46.828Z,52.37
2023-04-03T01:01:47.028Z,71.70
2023-04-03T01:02:46.062Z,52.69
2023-04-03T01:03:46.007Z,49.15
2023-04-03T01:04:45.999Z,46.89
2023-04-03T01:05:46.755Z,68.80
2023-04-03T01:06:46.001Z,47.70
2023-04-03T01:07:45.969Z,74.44
2023-04-03T01:08:45.960Z,48.66
2023-04-03T01:09:45.929Z,73.48
2023-04-03T01:10:47.025Z,47.53
2023-04-03T01:11:46.880Z,48.02
2023-04-03T01:12:47.004Z,74.28
2023-04-03T01:13:45.981Z,52.85
2023-04-03T01:14:45.924Z,57.20
2023-04-03T01:15:45.970Z,73.15
2023-04-03T01:16:45.904Z,48.02
2023-04-03T01:17:45.909Z,46.25
2023-04-03T01:18:46.868Z,46.41
2023-04-03T01:19:45.892Z,47.21
2023-04-03T01:20:45.873Z,48.34
2023-04-03T01:21:45.866Z,46.25
2023-04-03T01:22:45.920Z,47.05
2023-04-03T01:23:45.903Z,48.18
2023-04-03T01:24:45.864Z,72.19
2023-04-03T01:25:45.821Z,64.78
2023-04-03T01:26:45.832Z,77.18
2023-04-03T01:27:45.817Z,68.48
2023-04-03T01:28:46.007Z,47.05
2023-04-03T01:29:45.773Z,47.21
2023-04-03T01:30:45.774Z,46.25
2023-04-03T01:31:45.814Z,48.02
2023-04-03T01:32:45.832Z,47.21
2023-04-03T01:33:46.756Z,47.86
2023-04-03T01:34:45.774Z,47.53
2023-04-03T01:35:45.794Z,68.64
2023-04-03T01:36:45.733Z,46.41
2023-04-03T01:37:45.722Z,52.05
2023-04-03T01:38:45.786Z,69.77
2023-04-03T01:39:45.938Z,49.15
2023-04-03T01:40:45.705Z,70.74
2023-04-03T01:41:45.726Z,53.98
2023-04-03T01:42:45.719Z,62.04
2023-04-03T01:43:45.741Z,66.06
2023-04-03T01:44:45.666Z,48.02
2023-04-03T01:45:45.715Z,46.89
2023-04-03T01:46:45.688Z,49.15
2023-04-03T01:47:45.718Z,47.21
2023-04-03T01:48:45.662Z,48.50
2023-04-03T01:49:45.667Z,48.18
2023-04-03T01:50:45.634Z,68.96
2023-04-03T01:51:45.679Z,72.67
2023-04-03T01:52:45.633Z,64.94
2023-04-03T01:53:45.627Z,47.37
2023-04-03T01:54:45.645Z,77.67
2023-04-03T01:55:45.598Z,68.00
2023-04-03T01:56:45.612Z,71.06
2023-04-03T01:57:45.607Z,75.09
2023-04-03T01:58:45.606Z,64.13
2023-04-03T01:59:45.604Z,66.71
2023-04-03T02:00:45.603Z,72.67
2023-04-03T02:01:46.228Z,67.84
2023-04-03T02:02:45.592Z,55.75
2023-04-03T02:03:45.633Z,68.96
2023-04-03T02:04:45.591Z,48.50
2023-04-03T02:05:45.563Z,47.53
2023-04-03T02:06:45.518Z,71.54
2023-04-03T02:07:45.523Z,68.96
2023-04-03T02:08:45.541Z,72.35
2023-04-03T02:09:45.514Z,51.72
2023-04-03T02:10:45.800Z,47.21
2023-04-03T02:11:45.521Z,46.57
2023-04-03T02:12:45.451Z,46.57
2023-04-03T02:13:45.473Z,59.62
2023-04-03T02:14:46.390Z,67.35
2023-04-03T02:15:45.474Z,48.66
2023-04-03T02:16:45.481Z,67.84
2023-04-03T02:17:45.456Z,47.21
2023-04-03T02:18:45.410Z,69.77
2023-04-03T02:19:45.521Z,79.76
2023-04-03T02:20:45.409Z,72.67
2023-04-03T02:21:45.407Z,68.00
2023-04-03T02:22:45.423Z,75.25
2023-04-03T02:23:45.376Z,65.58
2023-04-03T02:24:45.867Z,45.76
2023-04-03T02:25:45.355Z,46.73
2023-04-03T02:26:45.372Z,48.82
2023-04-03T02:27:45.344Z,72.67
2023-04-03T02:28:45.333Z,69.93
2023-04-03T02:29:46.625Z,71.22
2023-04-03T02:30:45.420Z,47.53
2023-04-03T02:31:45.333Z,47.37
2023-04-03T02:32:45.349Z,46.73
2023-04-03T02:33:45.353Z,47.05
2023-04-03T02:34:45.317Z,47.70
2023-04-03T02:35:45.342Z,47.86
2023-04-03T02:36:46.265Z,47.86
2023-04-03T02:37:45.296Z,71.54
2023-04-03T02:38:45.300Z,73.32
2023-04-03T02:39:45.278Z,72.83
2023-04-03T02:40:45.247Z,60.59
2023-04-03T02:41:45.235Z,48.02
2023-04-03T02:42:45.827Z,72.51
2023-04-03T02:43:45.253Z,73.80
2023-04-03T02:44:45.253Z,52.05
2023-04-03T02:45:45.253Z,70.42
2023-04-03T02:46:45.337Z,74.93
2023-04-03T02:47:45.393Z,81.86
2023-04-03T02:48:45.191Z,65.74
2023-04-03T02:49:45.181Z,69.93
2023-04-03T02:50:45.165Z,68.96
2023-04-03T02:51:45.168Z,59.62
2023-04-03T02:52:45.829Z,72.51
2023-04-03T02:53:45.190Z,70.74
2023-04-03T02:54:45.214Z,70.09
2023-04-03T02:55:45.144Z,54.30
2023-04-03T02:56:45.144Z,73.96
2023-04-03T02:57:45.129Z,51.08
2023-04-03T02:58:45.158Z,75.25
2023-04-03T02:59:45.128Z,87.33
2023-04-03T03:00:45.081Z,70.90
2023-04-03T03:01:45.161Z,69.29
2023-04-03T03:02:45.161Z,73.15
2023-04-03T03:03:45.078Z,73.80
2023-04-03T03:04:45.427Z,77.18
2023-04-03T03:05:45.063Z,76.05
2023-04-03T03:06:45.855Z,72.03
2023-04-03T03:07:45.045Z,71.87
2023-04-03T03:08:45.052Z,70.25
2023-04-03T03:09:45.399Z,73.80
2023-04-03T03:10:45.024Z,69.45
2023-04-03T03:11:45.055Z,73.48
2023-04-03T03:12:44.977Z,70.90
2023-04-03T03:13:45.014Z,67.35
2023-04-03T03:14:45.132Z,71.22
2023-04-03T03:15:45.003Z,72.67
2023-04-03T03:16:44.980Z,74.28
2023-04-03T03:17:45.037Z,74.12
2023-04-03T03:18:44.958Z,74.28
2023-04-03T03:19:44.935Z,73.80
2023-04-03T03:20:46.785Z,72.35
2023-04-03T03:21:44.917Z,69.45
2023-04-03T03:22:44.943Z,72.35
2023-04-03T03:23:44.931Z,74.44
2023-04-03T03:24:45.963Z,71.54
2023-04-03T03:25:45.235Z,74.44
2023-04-03T03:26:44.876Z,74.60
2023-04-03T03:27:45.007Z,71.87
2023-04-03T03:28:44.894Z,74.44
2023-04-03T03:29:44.847Z,74.44
2023-04-03T03:30:44.865Z,75.73
2023-04-03T03:31:44.875Z,75.09
2023-04-03T03:32:45.016Z,75.25
2023-04-03T03:33:44.843Z,74.77
2023-04-03T03:34:44.810Z,73.64
2023-04-03T03:35:45.821Z,75.41
2023-04-03T03:36:44.803Z,75.73
2023-04-03T03:37:45.870Z,74.28
2023-04-03T03:38:45.811Z,78.79
2023-04-03T03:39:44.946Z,75.09
2023-04-03T03:40:44.798Z,74.44
2023-04-03T03:41:44.777Z,76.38
2023-04-03T03:42:44.952Z,74.44
2023-04-03T03:43:44.805Z,73.15
2023-04-03T03:44:44.756Z,74.77
2023-04-03T03:45:44.741Z,71.06
2023-04-03T03:46:44.869Z,72.99
2023-04-03T04:03:56.634Z,71.38
2023-04-03T04:04:56.493Z,81.21
2023-04-03T04:05:56.539Z,73.64
2023-04-03T04:06:57.123Z,74.60
2023-04-03T04:07:57.619Z,73.15
2023-04-03T04:08:57.628Z,73.48
2023-04-03T04:09:57.643Z,72.99
2023-04-03T04:10:58.724Z,79.28
2023-04-03T04:11:57.610Z,77.18
2023-04-03T04:12:58.644Z,75.73
2023-04-03T04:13:58.668Z,73.15
2023-04-03T04:14:57.584Z,74.28
2023-04-03T04:15:57.730Z,80.24
2023-04-03T04:16:57.725Z,73.32
2023-04-03T04:17:57.634Z,79.76
2023-04-03T04:18:57.565Z,77.02
2023-04-03T04:19:57.562Z,76.70
2023-04-03T04:20:57.622Z,76.70
2023-04-03T04:21:58.262Z,81.05
2023-04-03T04:22:57.550Z,73.80
2023-04-03T04:23:57.531Z,64.94
2023-04-03T04:24:57.520Z,80.08
2023-04-03T04:25:58.190Z,75.25
2023-04-03T04:26:58.502Z,81.86
2023-04-03T04:27:57.481Z,79.92
2023-04-03T04:28:58.309Z,73.64
2023-04-03T04:29:59.260Z,80.24
2023-04-03T04:30:58.481Z,76.05
2023-04-03T04:31:57.564Z,79.44
2023-04-03T04:32:57.567Z,79.44
2023-04-03T04:33:57.441Z,73.32
2023-04-03T04:34:57.503Z,75.89
2023-04-03T04:35:57.497Z,73.64
2023-04-03T04:36:57.493Z,72.51
2023-04-03T04:37:57.415Z,74.77
2023-04-03T04:38:57.481Z,80.73
2023-04-03T04:39:57.609Z,79.92
2023-04-03T04:40:57.403Z,75.09
2023-04-03T04:41:57.378Z,73.32
2023-04-03T04:42:57.386Z,76.38
2023-04-03T04:43:57.364Z,77.67
2023-04-03T04:44:57.375Z,80.57
2023-04-03T04:45:57.436Z,76.22
2023-04-03T04:46:57.382Z,75.57
2023-04-03T04:47:57.464Z,75.57
2023-04-03T04:48:57.345Z,81.37
2023-04-03T04:49:57.783Z,79.12
2023-04-03T04:50:58.110Z,75.25
2023-04-03T04:51:57.379Z,77.67
2023-04-03T04:52:57.304Z,77.99
2023-04-03T04:53:57.292Z,77.83
2023-04-03T04:54:57.302Z,75.09
2023-04-03T04:55:57.303Z,75.41
2023-04-03T04:56:57.402Z,74.77
2023-04-03T04:57:57.274Z,75.25
2023-04-03T04:58:57.241Z,80.24
2023-04-03T04:59:58.249Z,76.22
2023-04-03T05:00:57.233Z,75.73
2023-04-03T05:01:58.219Z,77.34
2023-04-03T05:02:57.238Z,83.47
2023-04-03T05:03:57.231Z,81.53
2023-04-03T05:04:57.225Z,74.12
2023-04-03T05:05:57.214Z,79.76
2023-04-03T05:06:57.273Z,76.86
2023-04-03T05:07:57.231Z,75.09
2023-04-03T05:08:57.195Z,75.89
2023-04-03T05:09:57.211Z,75.73
2023-04-03T05:10:57.175Z,80.08
2023-04-03T05:11:58.131Z,76.70
2023-04-03T05:12:57.158Z,76.70
2023-04-03T05:13:58.144Z,80.41
2023-04-03T05:14:57.164Z,79.76
2023-04-03T05:15:57.159Z,79.60
2023-04-03T05:16:57.140Z,75.09
2023-04-03T05:17:57.354Z,78.31
2023-04-03T05:18:57.157Z,79.92
2023-04-03T05:19:57.093Z,74.93
2023-04-03T05:20:57.157Z,80.24
2023-04-03T05:21:57.146Z,74.28
2023-04-03T05:22:57.224Z,76.70
2023-04-03T05:23:57.157Z,79.44
2023-04-03T05:24:57.119Z,79.92
2023-04-03T05:25:57.083Z,81.37
2023-04-03T05:26:57.048Z,79.44
2023-04-03T05:27:57.060Z,78.31
2023-04-03T05:28:57.068Z,74.28
2023-04-03T05:29:57.164Z,77.50
2023-04-03T05:30:57.041Z,78.63
2023-04-03T05:31:57.032Z,78.79
2023-04-03T05:32:57.865Z,76.54
2023-04-03T05:33:57.084Z,77.02
2023-04-03T05:34:57.957Z,79.92
2023-04-03T05:35:57.108Z,75.57
2023-04-03T05:36:57.004Z,77.99
2023-04-03T05:37:56.985Z,75.89
2023-04-03T05:38:56.962Z,75.09
2023-04-03T05:39:57.634Z,75.09
2023-04-03T05:40:56.956Z,78.31
2023-04-03T05:41:56.959Z,76.54
2023-04-03T05:42:56.987Z,76.70
2023-04-03T05:43:57.724Z,74.77
2023-04-03T05:44:56.915Z,78.47
2023-04-03T05:45:57.254Z,75.09
2023-04-03T05:46:56.970Z,78.47
2023-04-03T05:47:56.951Z,76.38
2023-04-03T05:48:56.909Z,74.60
2023-04-03T05:49:56.919Z,79.12
2023-04-03T05:50:57.266Z,82.18
2023-04-03T05:51:56.932Z,79.28
2023-04-03T05:52:57.705Z,75.09
2023-04-03T05:53:57.857Z,81.37
2023-04-03T05:54:56.901Z,74.93
2023-04-03T05:55:56.849Z,74.12
2023-04-03T05:56:56.883Z,75.09
2023-04-03T05:57:56.812Z,79.76
2023-04-03T05:58:56.836Z,74.93
2023-04-03T05:59:56.799Z,75.73
2023-04-03T06:00:56.791Z,77.99
2023-04-03T06:01:56.842Z,76.70
2023-04-03T06:02:57.439Z,80.08
2023-04-03T06:03:56.915Z,82.02
2023-04-03T06:04:56.968Z,84.43
2023-04-03T06:05:56.762Z,73.96
2023-04-03T06:06:56.766Z,80.57
2023-04-03T06:07:56.796Z,77.50
2023-04-03T06:08:56.731Z,81.86
2023-04-03T06:09:56.735Z,78.96
2023-04-03T06:10:56.728Z,81.37
2023-04-03T06:11:56.825Z,75.73
2023-04-03T06:12:56.737Z,78.63
2023-04-03T06:13:56.753Z,76.70
2023-04-03T06:14:56.725Z,79.60
2023-04-03T06:15:56.680Z,79.12
2023-04-03T06:16:56.739Z,75.25
2023-04-03T06:17:56.753Z,75.25
2023-04-03T06:18:56.686Z,81.53
2023-04-03T06:19:56.695Z,81.05
2023-04-03T06:20:56.795Z,73.48
2023-04-03T06:21:56.643Z,78.47
2023-04-03T06:22:56.647Z,74.93
2023-04-03T06:23:56.655Z,80.57
2023-04-03T06:24:56.645Z,78.96
2023-04-03T06:25:56.661Z,79.44
2023-04-03T06:26:56.605Z,76.54
2023-04-03T06:27:56.673Z,75.25
2023-04-03T06:28:56.638Z,72.67
2023-04-03T06:29:56.637Z,73.80
2023-04-03T06:30:57.320Z,77.67
2023-04-03T06:31:56.594Z,77.67
2023-04-03T06:32:56.675Z,78.96
2023-04-03T06:33:56.558Z,75.41
2023-04-03T06:34:56.589Z,72.99
2023-04-03T06:35:56.629Z,79.44
2023-04-03T06:36:56.562Z,77.18
2023-04-03T06:37:56.588Z,79.28
2023-04-03T06:38:56.544Z,77.83
2023-04-03T06:39:56.527Z,72.99
2023-04-03T06:40:56.698Z,81.53
2023-04-03T06:41:56.512Z,80.57
2023-04-03T06:42:56.528Z,80.24
2023-04-03T06:43:56.487Z,81.69
2023-04-03T06:44:56.472Z,78.47
2023-04-03T06:45:56.499Z,76.38
2023-04-03T06:46:56.537Z,76.70
2023-04-03T06:47:56.539Z,76.22
2023-04-03T06:48:56.611Z,80.89
2023-04-03T06:49:56.484Z,75.89
2023-04-03T06:50:56.477Z,74.60
2023-04-03T06:51:56.471Z,76.86
2023-04-03T06:52:56.470Z,74.28
2023-04-03T06:53:56.458Z,79.28
2023-04-03T06:54:56.451Z,77.99
2023-04-03T06:55:56.419Z,76.70
2023-04-03T06:56:56.436Z,76.70
2023-04-03T06:57:56.381Z,78.96
2023-04-03T06:58:57.269Z,73.64
2023-04-03T06:59:56.426Z,77.18
2023-04-03T07:00:56.392Z,81.37
2023-04-03T07:01:56.488Z,79.92
2023-04-03T07:02:56.412Z,74.28
2023-04-03T07:03:56.415Z,75.25
2023-04-03T07:04:56.437Z,77.02
2023-04-03T07:05:56.359Z,76.86
2023-04-03T07:06:56.328Z,78.31
2023-04-03T07:07:56.357Z,74.28
2023-04-03T07:08:56.333Z,80.57
2023-04-03T07:09:56.278Z,76.70
2023-04-03T07:10:56.369Z,74.12
2023-04-03T07:11:56.328Z,74.77
2023-04-03T07:12:56.274Z,78.47
2023-04-03T07:13:56.309Z,72.03
2023-04-03T07:14:56.284Z,72.83
2023-04-03T07:15:56.273Z,77.99
2023-04-03T07:16:56.312Z,75.89
2023-04-03T07:17:56.301Z,77.02
2023-04-03T07:18:56.248Z,71.54
2023-04-03T07:19:56.208Z,78.47
2023-04-03T07:20:56.213Z,75.57
2023-04-03T07:21:57.063Z,74.60
2023-04-03T07:22:56.283Z,79.76
2023-04-03T07:23:56.221Z,77.18
2023-04-03T07:24:56.164Z,80.73
2023-04-03T07:25:56.159Z,75.25
2023-04-03T07:26:56.230Z,73.96
2023-04-03T07:27:56.200Z,77.83
2023-04-03T07:28:56.180Z,74.28
2023-04-03T07:29:56.627Z,73.32
2023-04-03T07:30:56.173Z,74.60
2023-04-03T07:31:56.706Z,74.60
2023-04-03T07:32:56.184Z,79.44
2023-04-03T07:33:56.221Z,75.57
2023-04-03T07:34:57.131Z,79.12
2023-04-03T07:35:56.172Z,76.22
2023-04-03T07:36:56.102Z,76.54
2023-04-03T07:37:56.120Z,75.25
2023-04-03T07:38:56.151Z,74.28
2023-04-03T07:39:56.079Z,76.38
2023-04-03T07:40:56.062Z,74.77
2023-04-03T07:41:56.777Z,74.93
2023-04-03T07:42:56.082Z,77.50
2023-04-03T07:43:56.057Z,79.92
2023-04-03T07:44:56.784Z,74.77
2023-04-03T07:45:56.079Z,74.60
2023-04-03T07:46:56.770Z,74.60
2023-04-03T07:47:56.065Z,73.15
2023-04-03T07:48:57.419Z,78.63
2023-04-03T07:49:56.107Z,74.93
2023-04-03T07:50:56.021Z,78.79
2023-04-03T07:51:55.976Z,75.73
2023-04-03T07:53:28.692Z,73.15
2023-04-03T07:53:55.971Z,76.22
2023-04-03T07:54:56.814Z,76.86
2023-04-03T07:55:55.971Z,77.83
2023-04-03T07:56:56.077Z,81.05
2023-04-03T07:57:56.756Z,80.73
2023-04-03T07:58:55.953Z,77.34
2023-04-03T07:59:56.742Z,75.25
2023-04-03T08:00:55.979Z,72.03
2023-04-03T08:01:55.930Z,75.25
2023-04-03T08:02:56.215Z,81.05
2023-04-03T08:03:55.983Z,74.93
2023-04-03T08:04:55.985Z,74.28
2023-04-03T08:05:56.815Z,81.05
2023-04-03T08:06:56.690Z,89.59
2023-04-03T08:07:55.878Z,74.60
2023-04-03T08:08:55.856Z,77.18
2023-04-03T08:09:55.851Z,76.22
2023-04-03T08:10:55.868Z,73.32
2023-04-03T08:11:55.867Z,75.41
2023-04-03T08:12:55.828Z,80.24
2023-04-03T08:13:55.861Z,79.12
2023-04-03T08:14:55.826Z,80.89
2023-04-03T08:15:55.789Z,81.69
2023-04-03T08:16:55.904Z,75.09
2023-04-03T08:17:55.956Z,76.70
2023-04-03T08:18:55.791Z,74.93
2023-04-03T08:19:55.798Z,74.44
2023-04-03T08:20:55.762Z,79.76
2023-04-03T08:21:55.804Z,73.15
2023-04-03T08:22:56.064Z,75.89
2023-04-03T08:23:55.744Z,75.73
2023-04-03T08:24:59.532Z,73.96
2023-04-03T08:25:56.710Z,73.32
2023-04-03T08:26:55.805Z,72.51
2023-04-03T08:27:56.638Z,75.73
2023-04-03T08:28:55.700Z,79.44
2023-04-03T08:29:55.697Z,71.70
2023-04-03T08:30:55.683Z,80.24
2023-04-03T08:31:56.296Z,76.38
2023-04-03T08:32:55.750Z,75.09
2023-04-03T08:33:55.694Z,76.38
2023-04-03T08:34:55.680Z,77.67
2023-04-03T08:35:55.699Z,75.57
2023-04-03T08:36:55.719Z,74.77
2023-04-03T08:37:55.680Z,75.73
2023-04-03T08:38:55.612Z,74.93
2023-04-03T08:39:55.644Z,77.50
2023-04-03T08:40:56.309Z,71.87
2023-04-03T08:41:55.635Z,78.96
2023-04-03T08:42:55.644Z,76.86
2023-04-03T08:43:55.612Z,73.64
2023-04-03T08:44:56.192Z,80.57
2023-04-03T08:45:55.694Z,74.28
2023-04-03T08:46:55.646Z,75.57
2023-04-03T08:47:56.568Z,73.96
2023-04-03T08:48:55.576Z,73.32
2023-04-03T08:49:55.623Z,77.67
2023-04-03T08:50:56.442Z,75.09
2023-04-03T08:51:55.547Z,77.50
2023-04-03T08:52:55.523Z,76.86
2023-04-03T08:53:55.517Z,77.02
2023-04-03T08:54:55.530Z,75.25
2023-04-03T08:55:56.206Z,72.83
2023-04-03T08:56:55.543Z,75.41
2023-04-03T08:57:55.517Z,73.80
2023-04-03T08:58:55.474Z,73.48
2023-04-03T08:59:55.474Z,77.83
2023-04-03T09:00:55.457Z,76.05
2023-04-03T09:01:55.455Z,73.96
2023-04-03T09:02:55.553Z,77.50
2023-04-03T09:03:55.452Z,75.25
2023-04-03T09:04:55.461Z,73.80
2023-04-03T09:05:55.440Z,81.37
2023-04-03T09:06:55.500Z,75.25
2023-04-03T09:07:55.419Z,80.57
2023-04-03T09:08:55.433Z,71.87
2023-04-03T09:09:55.389Z,75.73
2023-04-03T09:10:55.395Z,75.89
2023-04-03T09:11:55.356Z,78.96
2023-04-03T09:12:56.199Z,79.12
2023-04-03T09:13:55.431Z,76.05
2023-04-03T09:14:55.404Z,73.32
2023-04-03T09:15:55.373Z,75.57
2023-04-03T09:16:55.392Z,75.09
2023-04-03T09:17:55.379Z,74.12
2023-04-03T09:18:56.304Z,74.93
2023-04-03T09:19:55.300Z,74.28
2023-04-03T09:20:55.360Z,73.80
2023-04-03T09:21:55.303Z,76.05
2023-04-03T09:22:55.386Z,74.77
2023-04-03T09:23:56.155Z,80.08
2023-04-03T09:24:55.261Z,75.89
2023-04-03T09:25:55.296Z,79.60
2023-04-03T09:26:55.259Z,78.79
2023-04-03T09:27:55.313Z,74.44
2023-04-03T09:28:55.297Z,77.83
2023-04-03T09:29:55.231Z,77.67
2023-04-03T09:30:55.328Z,72.03
2023-04-03T09:31:55.273Z,76.38
2023-04-03T09:32:55.253Z,74.28
2023-04-03T09:33:55.253Z,78.31
2023-04-03T09:34:55.608Z,80.08
2023-04-03T09:35:55.228Z,80.73
2023-04-03T09:36:55.257Z,77.83
2023-04-03T09:37:55.169Z,80.89
2023-04-03T09:38:55.257Z,73.32
2023-04-03T09:39:55.139Z,75.41
2023-04-03T09:40:55.336Z,77.02
2023-04-03T09:41:55.144Z,79.44
2023-04-03T09:43:01.342Z,80.41
2023-04-03T09:43:57.168Z,77.34
2023-04-03T09:44:55.123Z,79.60
2023-04-03T09:45:55.123Z,73.32
2023-04-03T09:46:55.859Z,72.03
2023-04-03T09:47:55.223Z,75.73
2023-04-03T09:49:05.146Z,76.54
2023-04-03T09:49:57.071Z,75.25
2023-04-03T09:50:55.109Z,78.47
2023-04-03T09:51:55.631Z,73.80
2023-04-03T09:52:55.050Z,78.15
2023-04-03T09:53:55.828Z,72.03
2023-04-03T09:54:55.117Z,75.25
2023-04-03T09:55:55.028Z,75.41
2023-04-03T09:56:55.064Z,75.09
2023-04-03T09:57:55.029Z,79.28
2023-04-03T09:58:55.041Z,73.96
2023-04-03T09:59:55.125Z,75.25
2023-04-03T10:00:55.028Z,76.54
2023-04-03T10:01:54.993Z,79.60
2023-04-03T10:02:55.002Z,78.96
2023-04-03T10:03:55.082Z,80.73
2023-04-03T10:05:08.410Z,74.60
2023-04-03T10:05:56.973Z,71.54
2023-04-03T10:06:54.962Z,73.32
2023-04-03T10:08:03.429Z,77.18
2023-04-03T10:08:57.871Z,79.28
2023-04-03T10:09:54.926Z,73.15
2023-04-03T10:10:54.999Z,77.83
2023-04-03T10:11:54.904Z,78.15
2023-04-03T10:12:54.959Z,71.87
2023-04-03T10:13:54.933Z,77.34
2023-04-03T10:14:55.825Z,75.41
2023-04-03T10:15:54.873Z,79.92
2023-04-03T10:16:54.930Z,76.86
2023-04-03T10:17:54.921Z,77.18
2023-04-03T10:18:54.878Z,75.25
2023-04-03T10:19:54.872Z,74.44
2023-04-03T10:20:54.855Z,73.96
2023-04-03T10:21:55.795Z,75.89
2023-04-03T10:22:54.835Z,79.92
2023-04-03T10:23:54.841Z,72.51
2023-04-03T10:24:54.800Z,75.57
2023-04-03T10:25:54.833Z,79.60
2023-04-03T10:26:55.626Z,76.86
2023-04-03T10:27:54.779Z,71.87
2023-04-03T10:28:54.781Z,76.38
2023-04-03T10:29:55.372Z,72.03
2023-04-03T10:30:54.857Z,75.73
2023-04-03T10:31:55.311Z,75.89
2023-04-03T10:32:54.766Z,77.18
2023-04-03T10:33:54.747Z,78.79
2023-04-03T10:35:02.685Z,71.70
2023-04-03T10:35:57.683Z,73.15
2023-04-03T10:36:55.212Z,77.18
2023-04-03T10:37:54.703Z,77.83
2023-04-03T10:38:54.687Z,72.83
2023-04-03T10:39:54.706Z,73.32
2023-04-03T10:40:55.306Z,74.28
2023-04-03T10:42:05.554Z,76.38
2023-04-03T10:42:57.384Z,70.09
2023-04-03T10:43:54.654Z,70.09
2023-04-03T10:44:54.675Z,74.77
2023-04-03T10:45:54.700Z,78.31
2023-04-03T10:46:55.659Z,75.57
2023-04-03T10:47:54.725Z,75.89
2023-04-03T10:48:54.772Z,72.03
2023-04-03T10:49:59.983Z,80.24
2023-04-03T10:50:56.277Z,79.92
2023-04-03T10:51:54.617Z,72.83
2023-04-03T10:52:55.669Z,70.58
2023-04-03T10:53:54.619Z,75.09
2023-04-03T10:54:54.636Z,78.63
2023-04-03T10:55:54.618Z,73.64
2023-04-03T10:57:04.431Z,78.31
2023-04-03T10:57:56.705Z,74.12
2023-04-03T10:58:54.634Z,75.25
2023-04-03T10:59:55.350Z,76.38
2023-04-03T11:00:54.570Z,71.87
2023-04-03T11:01:54.581Z,76.38
2023-04-03T11:02:54.722Z,69.13
2023-04-03T11:03:54.633Z,76.05
2023-04-03T11:04:54.809Z,79.28
2023-04-03T11:05:54.535Z,78.63
2023-04-03T11:06:54.506Z,75.57
2023-04-03T11:07:54.482Z,78.63
2023-04-03T11:08:55.503Z,76.38
2023-04-03T11:09:54.496Z,76.05
2023-04-03T11:10:54.676Z,73.15
2023-04-03T11:11:54.544Z,78.96
2023-04-03T11:12:54.469Z,75.57
2023-04-03T11:13:54.415Z,80.41
2023-04-03T11:14:55.535Z,73.96
2023-04-03T11:15:54.494Z,73.15
2023-04-03T11:16:54.785Z,73.32
2023-04-03T11:17:54.617Z,72.83
2023-04-03T11:18:54.401Z,73.80
2023-04-03T11:19:54.386Z,75.41
2023-04-03T11:20:54.401Z,73.80
2023-04-03T11:21:54.468Z,78.47
2023-04-03T11:22:54.439Z,78.63
2023-04-03T11:23:54.380Z,77.67
2023-04-03T11:24:54.366Z,72.67
2023-04-03T11:25:54.345Z,74.77
2023-04-03T11:26:54.341Z,74.93
2023-04-03T11:27:54.872Z,83.79
2023-04-03T11:28:54.390Z,73.80
2023-04-03T11:29:54.309Z,77.34
2023-04-03T11:30:55.709Z,72.99
2023-04-03T11:31:54.403Z,78.63
2023-04-03T11:32:55.261Z,75.25
2023-04-03T11:33:54.311Z,72.83
2023-04-03T11:34:54.282Z,79.76
2023-04-03T11:35:54.308Z,79.12
2023-04-03T11:36:54.295Z,78.63
2023-04-03T11:37:54.338Z,71.87
2023-04-03T11:38:54.801Z,74.12
2023-04-03T11:39:54.247Z,80.41
2023-04-03T11:40:54.246Z,73.32
2023-04-03T11:42:06.669Z,78.96
2023-04-03T11:42:56.238Z,72.51
2023-04-03T11:43:54.221Z,72.51
2023-04-03T11:44:54.231Z,80.24
2023-04-03T11:45:54.400Z,73.48
2023-04-03T11:46:57.041Z,79.28
2023-04-03T11:47:55.302Z,73.80
2023-04-03T11:48:54.253Z,72.35
2023-04-03T11:49:54.261Z,82.18
2023-04-03T11:50:54.396Z,73.64
2023-04-03T11:51:54.833Z,75.41
2023-04-03T11:52:54.150Z,72.19
2023-04-03T11:53:54.135Z,74.12
2023-04-03T11:54:54.136Z,78.47
2023-04-03T11:55:54.260Z,73.32
2023-04-03T11:56:54.125Z,73.80
2023-04-03T11:57:54.143Z,79.12
2023-04-03T11:58:54.198Z,74.28
2023-04-03T11:59:54.164Z,74.60
2023-04-03T12:00:54.719Z,74.77
2023-04-03T12:01:54.229Z,75.89
2023-04-03T12:02:54.973Z,72.67
2023-04-03T12:03:55.233Z,77.83
2023-04-03T12:04:54.087Z,73.96
2023-04-03T12:05:54.072Z,74.28
2023-04-03T12:06:54.065Z,75.57
2023-04-03T12:07:54.264Z,72.67
2023-04-03T12:08:54.834Z,73.32
2023-04-03T12:09:54.013Z,74.44
2023-04-03T12:10:54.295Z,75.73
2023-04-03T12:11:54.040Z,75.25
2023-04-03T12:12:54.026Z,76.70
2023-04-03T12:13:54.858Z,74.28
2023-04-03T12:14:53.969Z,78.15
2023-04-03T12:15:53.965Z,72.99
2023-04-03T12:16:55.029Z,76.86
2023-04-03T12:17:54.195Z,77.99
2023-04-03T12:18:54.037Z,73.15
2023-04-03T12:19:53.940Z,76.54
2023-04-03T12:20:53.948Z,73.80
2023-04-03T12:21:53.959Z,77.67
2023-04-03T12:22:53.940Z,81.21
2023-04-03T12:23:54.908Z,71.38
2023-04-03T12:24:53.905Z,74.93
2023-04-03T12:25:53.868Z,74.60
2023-04-03T12:26:53.900Z,74.44
2023-04-03T12:27:53.892Z,77.50
2023-04-03T12:28:54.167Z,76.22
2023-04-03T12:29:53.890Z,73.80
2023-04-03T12:30:53.944Z,79.76
2023-04-03T12:31:53.884Z,75.73
2023-04-03T12:33:05.635Z,78.15
2023-04-03T12:33:55.813Z,75.25
2023-04-03T12:34:53.917Z,75.73
2023-04-03T12:35:53.895Z,79.76
2023-04-03T12:36:53.874Z,73.15
2023-04-03T12:37:53.823Z,80.24
2023-04-03T12:38:53.821Z,73.80
2023-04-03T12:39:53.760Z,73.64
2023-04-03T12:40:53.920Z,72.03
2023-04-03T12:41:53.813Z,73.48
2023-04-03T12:42:53.740Z,77.83
2023-04-03T12:43:53.756Z,78.96
2023-04-03T12:44:53.719Z,80.73
2023-04-03T12:45:54.348Z,71.87
2023-04-03T12:46:53.825Z,74.28
2023-04-03T12:47:53.791Z,75.41
2023-04-03T12:48:54.455Z,72.83
2023-04-03T12:49:53.718Z,76.70
2023-04-03T12:50:53.797Z,79.76
2023-04-03T12:51:54.335Z,76.70
2023-04-03T12:52:53.700Z,73.80
2023-04-03T12:53:53.795Z,75.73
2023-04-03T12:54:53.664Z,78.31
2023-04-03T12:55:53.671Z,78.31
2023-04-03T12:56:53.708Z,76.22
2023-04-03T12:57:53.689Z,76.05
2023-04-03T12:58:53.905Z,76.38
2023-04-03T12:59:53.671Z,76.54
2023-04-03T13:00:53.659Z,73.32
2023-04-03T13:01:53.657Z,72.35
2023-04-03T13:02:53.681Z,74.77
2023-04-03T13:03:54.347Z,76.86
2023-04-03T13:04:53.595Z,78.15
2023-04-03T13:05:53.590Z,78.47
2023-04-03T13:06:53.675Z,78.15
2023-04-03T13:07:54.227Z,77.99
2023-04-03T13:08:53.594Z,75.73